Stickney, SD (57375)

2:34 PM CST on February 12, 2016 (GMT -0600)
Dudley Twp - Aurora Cnty | | Change Station
CLOSE
Current Station
Personal Weather Station
Location: Plankinton, SD
Elevation: 1506 ft
Nearby Weather Stations

Elev 1506 ft 43.65 °N, 98.39 °W | Updated 15 seconds ago

Partly Cloudy
Partly Cloudy
15.1 °F
Feels Like 7 °F
N
5.1
Wind Variable Wind from North
Gusts 7.4 mph

Today
High -- | Low -- °F
--% Chance of Precip.
Yesterday
High -- | Low -- °F
Precip. -- in
Pressure 30.66 in
Visibility 10.0 miles
Clouds Few 2100 ft
Windchill 7 °F
Dew Point 0 °F
Humidity 52%
Rainfall 0.00 in
Snow Depth Not available.
7:37 AM 6:00 PM
Waxing Crescent, 23% visible
METAR KMHE 121953Z AUTO 01013KT 10SM FEW021 M09/M16 A3059 RMK AO2 SLP383 T10941156
Pressure 30.66 in
Visibility 10.0 miles
Clouds Few 2100 ft
Windchill 7 °F
Dew Point 0 °F
Humidity 52%
Rainfall 0.00 in
Snow Depth Not available.
7:37 AM 6:00 PM
Waxing Crescent, 23% visible
METAR KMHE 121953Z AUTO 01013KT 10SM FEW021 M09/M16 A3059 RMK AO2 SLP383 T10941156

10-Day Weather Forecast

Almanac

Astronomy

Feb. 12, 2016 Rise Set
Actual Time
Civil Twilight
Nautical Twilight
Astronomical Twilight
Moon
Length of Visible Light
Length of Day
Tomorrow will be .
, % of the Moon is Illuminated

Today's Extremes

State Highs State Lows

Community

WunderPhotos

Upload Photos

1,892,388 photos uploaded!

WunderBlog® & News

Nearby

Air Quality

  Air Quality AQ Index Pollutant
Not available.

Snow Depth

Station Depth Elevation

Earthquake Activity

City Distance Mag. Time & Date
Minimum magnitude displayed is 2.5.

Coastal Water Temperatures

Place Temperature

Stations

Nearby Weather Stations

Station Location Temp. Windchill Dew Point Humidity Wind Precip. Elev Updated Type
                   

Watches & Warnings

There are currently no watches in effect.